Time;durP1;ratioP1;P1;durP2;ratioP2;P2;SDS_P1;SDS_P2;PMS_P1;PMS_P2;Temp;Humidity;BMP_temperature;BMP_pressure;BME280_temperature;BME280_humidity;BME280_pressure;Samples;Min_cycle;Max_cycle;Signal;HPM_P1;HPM_P2
2021/01/22 00:00:53;;;;;;;1.20;0.80;;;5.70;99.90;;;;;;5024919;28;20194;-48
2021/01/22 00:03:20;;;;;;;3.17;0.77;;;5.70;99.90;;;;;;5020831;28;20180;-48
2021/01/22 00:05:45;;;;;;;5.50;0.77;;;5.70;99.90;;;;;;5025118;28;20180;-52
2021/01/22 00:08:11;;;;;;;2.07;0.80;;;5.70;99.90;;;;;;5021572;28;20206;-52
2021/01/22 00:10:36;;;;;;;5.17;1.10;;;5.70;99.90;;;;;;5009567;28;20191;-50
2021/01/22 00:13:02;;;;;;;2.83;0.67;;;5.70;99.90;;;;;;5018809;28;20219;-55
2021/01/22 00:15:27;;;;;;;2.50;0.80;;;5.70;99.90;;;;;;5020717;28;20188;-51
2021/01/22 00:17:53;;;;;;;3.10;1.07;;;5.60;99.90;;;;;;5023796;28;20195;-48
2021/01/22 00:20:18;;;;;;;2.50;0.83;;;5.60;99.90;;;;;;5019371;28;20202;-48
2021/01/22 00:22:44;;;;;;;2.50;0.60;;;5.70;99.90;;;;;;5017609;28;20558;-51
2021/01/22 00:25:10;;;;;;;1.70;1.10;;;5.70;99.90;;;;;;5012272;28;20602;-54
2021/01/22 00:27:35;;;;;;;3.73;1.03;;;5.70;99.90;;;;;;5013474;28;20219;-51
2021/01/22 00:30:01;;;;;;;2.77;0.80;;;5.70;99.90;;;;;;5023155;28;20751;-57
2021/01/22 00:32:27;;;;;;;1.60;1.30;;;5.70;99.90;;;;;;5021564;28;20160;-51
2021/01/22 00:34:52;;;;;;;6.00;1.10;;;5.70;99.90;;;;;;5024248;28;20208;-52
2021/01/22 00:37:18;;;;;;;2.40;0.80;;;5.80;99.90;;;;;;5020102;28;20986;-48
2021/01/22 00:39:43;;;;;;;6.87;1.20;;;5.80;99.90;;;;;;5024050;28;20192;-50
2021/01/22 00:42:09;;;;;;;1.13;1.03;;;5.80;99.90;;;;;;5007336;28;20200;-54
2021/01/22 00:44:34;;;;;;;2.80;1.50;;;5.90;99.90;;;;;;5022569;28;20850;-53
2021/01/22 00:47:00;;;;;;;2.60;1.53;;;5.90;99.90;;;;;;5022966;28;20246;-54
2021/01/22 00:49:25;;;;;;;3.47;1.10;;;5.90;99.90;;;;;;5020564;28;20307;-52
2021/01/22 00:51:50;;;;;;;2.57;1.20;;;6.00;99.90;;;;;;5024051;28;20180;-53
2021/01/22 00:54:16;;;;;;;6.93;1.17;;;6.00;99.90;;;;;;5019655;28;20253;-55
2021/01/22 00:56:41;;;;;;;4.47;1.07;;;6.00;99.90;;;;;;5009705;28;20591;-51
2021/01/22 00:59:07;;;;;;;0.90;0.77;;;6.10;99.90;;;;;;5020901;28;20609;-53
2021/01/22 01:01:33;;;;;;;2.30;1.20;;;6.20;99.90;;;;;;5021848;28;20176;-57
2021/01/22 01:03:58;;;;;;;2.97;1.27;;;6.20;99.90;;;;;;5011816;28;20211;-55
2021/01/22 01:06:24;;;;;;;4.53;1.37;;;6.30;99.90;;;;;;5018050;28;21514;-46
2021/01/22 01:08:50;;;;;;;2.80;1.30;;;6.40;99.90;;;;;;5018618;28;20231;-57
2021/01/22 01:11:15;;;;;;;1.43;1.30;;;6.40;99.90;;;;;;5021084;28;20180;-49
2021/01/22 01:13:41;;;;;;;1.60;1.40;;;6.40;99.90;;;;;;5006448;28;20226;-52
2021/01/22 01:16:06;;;;;;;3.30;1.37;;;6.40;99.90;;;;;;5019082;28;20164;-56
2021/01/22 01:18:32;;;;;;;4.93;1.40;;;6.40;99.90;;;;;;5021739;28;20191;-56
2021/01/22 01:20:57;;;;;;;2.90;1.20;;;6.40;99.90;;;;;;5017581;28;20267;-49
2021/01/22 01:23:22;;;;;;;1.87;1.00;;;6.50;99.90;;;;;;5022994;28;20193;-48
2021/01/22 01:25:48;;;;;;;3.73;1.30;;;6.50;99.90;;;;;;5020288;28;20262;-59
2021/01/22 01:28:13;;;;;;;1.23;1.17;;;6.50;99.90;;;;;;5006729;28;20227;-53
2021/01/22 01:30:39;;;;;;;5.50;1.37;;;6.50;99.90;;;;;;5021232;28;20188;-52
2021/01/22 01:33:05;;;;;;;3.90;1.20;;;6.60;99.90;;;;;;5019621;28;20214;-51
2021/01/22 01:35:30;;;;;;;2.07;1.00;;;6.60;99.90;;;;;;5022782;28;20196;-52
2021/01/22 01:37:56;;;;;;;1.60;1.50;;;6.70;99.90;;;;;;5018894;28;20190;-53
2021/01/22 01:40:22;;;;;;;7.63;1.30;;;6.80;99.90;;;;;;5022938;28;20893;-55
2021/01/22 01:42:47;;;;;;;1.57;1.10;;;6.80;99.90;;;;;;5004824;28;20253;-54
2021/01/22 01:45:15;;;;;;;2.33;1.17;;;6.90;99.90;;;;;;5021642;28;20191;-54
2021/01/22 01:47:41;;;;;;;1.10;0.90;;;7.00;99.90;;;;;;5021478;28;20226;-53
2021/01/22 01:50:07;;;;;;;0.87;0.87;;;7.10;99.90;;;;;;5019442;28;20833;-50
2021/01/22 01:52:32;;;;;;;0.90;0.90;;;7.20;99.90;;;;;;5023038;28;20180;-53
2021/01/22 01:54:58;;;;;;;2.27;1.10;;;7.30;99.90;;;;;;5018727;28;20203;-50
2021/01/22 01:57:24;;;;;;;1.17;1.10;;;7.50;99.90;;;;;;5022956;28;20198;-50
2021/01/22 01:59:50;;;;;;;0.70;0.70;;;7.60;99.90;;;;;;5004179;28;20188;-54
2021/01/22 02:02:15;;;;;;;1.10;0.80;;;7.70;99.90;;;;;;5022182;28;20192;-50
2021/01/22 02:04:41;;;;;;;1.73;0.50;;;7.80;99.90;;;;;;5021476;28;20695;-50
2021/01/22 02:07:06;;;;;;;1.37;0.80;;;7.90;99.90;;;;;;5020452;28;20258;-51
2021/01/22 02:09:32;;;;;;;0.70;0.70;;;8.00;99.90;;;;;;5022558;28;20184;-49
2021/01/22 02:11:59;;;;;;;0.83;0.60;;;8.00;99.90;;;;;;5018868;28;20266;-52
2021/01/22 02:14:25;;;;;;;2.20;0.70;;;8.10;99.90;;;;;;5007918;28;20222;-53
2021/01/22 02:16:51;;;;;;;3.80;0.70;;;8.20;99.90;;;;;;5019403;28;20216;-54
2021/01/22 02:19:27;;;;;;;1.00;0.57;;;8.10;99.90;;;;;;5021988;28;20235;-51
2021/01/22 02:21:53;;;;;;;2.47;0.70;;;8.20;99.90;;;;;;5018845;28;20585;-53
2021/01/22 02:24:22;;;;;;;0.60;0.60;;;8.20;99.90;;;;;;5022749;28;20276;-52
2021/01/22 02:26:55;;;;;;;1.17;0.63;;;8.20;99.90;;;;;;5011261;28;20188;-50
2021/01/22 02:29:21;;;;;;;1.37;0.40;;;8.30;99.90;;;;;;5004142;28;20279;-54
2021/01/22 02:31:49;;;;;;;0.70;0.50;;;8.20;99.90;;;;;;5020010;28;20171;-49
2021/01/22 02:34:16;;;;;;;1.87;0.50;;;8.20;99.90;;;;;;5021293;28;20196;-54
2021/01/22 02:36:45;;;;;;;0.50;0.50;;;8.30;99.90;;;;;;5019303;28;20872;-50
2021/01/22 02:39:13;;;;;;;0.60;0.50;;;8.30;99.90;;;;;;5022429;28;20560;-48
2021/01/22 02:41:43;;;;;;;0.67;0.67;;;8.40;99.90;;;;;;5021669;28;20176;-46
2021/01/22 02:44:09;;;;;;;0.73;0.70;;;8.40;99.90;;;;;;5012457;28;20279;-47
2021/01/22 02:46:37;;;;;;;0.93;0.50;;;8.40;99.90;;;;;;5021991;28;20887;-47
2021/01/22 02:49:03;;;;;;;1.67;0.60;;;8.40;99.90;;;;;;5025858;28;20196;-49
2021/01/22 02:51:28;;;;;;;0.53;0.40;;;8.40;99.90;;;;;;5022298;28;20179;-58
2021/01/22 02:53:54;;;;;;;1.90;0.50;;;8.50;99.90;;;;;;5025739;28;20668;-50
2021/01/22 02:56:29;;;;;;;1.93;0.50;;;8.40;99.90;;;;;;5024499;28;20243;-57
2021/01/22 02:59:32;;;;;;;0.63;0.40;;;8.40;99.90;;;;;;5025679;28;20186;-47
2021/01/22 03:02:25;;;;;;;0.90;0.50;;;8.50;99.90;;;;;;5022969;28;20191;-54
2021/01/22 03:04:52;;;;;;;0.60;0.50;;;8.40;99.90;;;;;;5018890;28;20196;-53
2021/01/22 03:07:25;;;;;;;0.50;0.43;;;8.40;99.90;;;;;;5024317;28;20286;-53
2021/01/22 03:09:55;;;;;;;0.73;0.73;;;8.40;99.90;;;;;;5024319;28;20184;-53
2021/01/22 03:12:21;;;;;;;0.80;0.60;;;8.40;99.90;;;;;;5023829;28;20176;-53
2021/01/22 03:14:48;;;;;;;1.17;0.50;;;8.40;99.90;;;;;;5023584;28;20925;-51
2021/01/22 03:17:17;;;;;;;0.30;0.30;;;8.40;99.90;;;;;;5011136;28;20637;-59
2021/01/22 03:19:47;;;;;;;0.60;0.60;;;8.40;99.90;;;;;;5022815;28;20183;-50
2021/01/22 03:22:13;;;;;;;0.60;0.40;;;8.50;99.90;;;;;;5025550;28;20638;-56
2021/01/22 03:24:39;;;;;;;1.47;0.70;;;8.40;99.90;;;;;;5022045;28;20207;-50
2021/01/22 03:27:05;;;;;;;0.40;0.40;;;8.40;99.90;;;;;;5025766;28;20219;-57
2021/01/22 03:29:30;;;;;;;0.60;0.60;;;8.40;99.90;;;;;;5021564;28;20195;-50
2021/01/22 03:31:58;;;;;;;0.90;0.90;;;8.40;99.90;;;;;;5009179;28;20192;-52
2021/01/22 03:34:26;;;;;;;0.47;0.47;;;8.40;99.90;;;;;;5022747;28;20646;-55
2021/01/22 03:37:01;;;;;;;2.27;0.70;;;8.40;99.90;;;;;;5024289;28;20613;-48
2021/01/22 03:39:27;;;;;;;1.00;0.60;;;8.40;99.90;;;;;;5022188;28;20215;-56
2021/01/22 03:41:53;;;;;;;0.70;0.57;;;8.40;99.90;;;;;;5024748;28;20199;-48
2021/01/22 03:44:19;;;;;;;0.70;0.47;;;8.50;99.90;;;;;;5023737;28;20211;-51
2021/01/22 03:46:46;;;;;;;1.00;0.40;;;8.50;99.90;;;;;;5022742;28;20858;-55
2021/01/22 03:49:12;;;;;;;0.80;0.40;;;8.50;99.90;;;;;;5006257;28;20274;-53
2021/01/22 03:51:37;;;;;;;0.37;0.37;;;8.60;99.90;;;;;;5020340;28;20234;-50
2021/01/22 03:54:03;;;;;;;1.67;0.50;;;8.60;99.90;;;;;;5024084;28;20247;-49
2021/01/22 03:56:29;;;;;;;0.57;0.57;;;8.60;99.90;;;;;;5021205;28;20184;-55
2021/01/22 03:58:55;;;;;;;2.00;0.40;;;8.60;99.90;;;;;;5024425;28;20251;-48
2021/01/22 04:01:21;;;;;;;1.30;0.40;;;8.60;99.90;;;;;;5023074;28;20186;-50
2021/01/22 04:03:50;;;;;;;0.30;0.30;;;8.60;99.90;;;;;;5008682;28;20301;-50
2021/01/22 04:06:16;;;;;;;1.53;1.13;;;8.60;99.90;;;;;;5023778;28;20251;-52
2021/01/22 04:08:41;;;;;;;0.60;0.50;;;8.60;99.90;;;;;;5021443;28;20242;-50
2021/01/22 04:11:08;;;;;;;0.57;0.40;;;8.60;99.90;;;;;;5024970;28;20188;-49
2021/01/22 04:13:33;;;;;;;0.40;0.40;;;8.60;99.90;;;;;;5020508;28;20207;-50
2021/01/22 04:15:59;;;;;;;0.80;0.47;;;8.60;99.90;;;;;;5024973;28;20537;-50
2021/01/22 04:18:25;;;;;;;1.23;0.63;;;8.70;99.90;;;;;;5021817;28;20199;-52
2021/01/22 04:20:50;;;;;;;0.33;0.20;;;8.70;99.90;;;;;;5009414;28;20648;-53
2021/01/22 04:23:16;;;;;;;1.37;0.70;;;8.70;99.90;;;;;;5023121;28;20652;-49
2021/01/22 04:25:41;;;;;;;1.97;0.70;;;8.70;99.90;;;;;;5021318;28;20939;-56
2021/01/22 04:28:07;;;;;;;0.67;0.20;;;8.80;99.90;;;;;;5024193;28;20208;-56
2021/01/22 04:30:32;;;;;;;0.40;0.20;;;8.50;99.90;;;;;;5020236;28;20172;-56
2021/01/22 04:32:58;;;;;;;0.50;0.10;;;8.10;99.90;;;;;;5024597;28;20259;-53
2021/01/22 04:35:23;;;;;;;0.87;0.10;;;7.70;99.90;;;;;;5007714;28;20200;-52
2021/01/22 04:37:48;;;;;;;0.43;0.20;;;7.30;99.90;;;;;;5022741;28;20828;-51
2021/01/22 04:40:15;;;;;;;0.07;0.07;;;6.90;99.90;;;;;;5015636;28;20190;-49
2021/01/22 04:42:42;;;;;;;0.20;0.20;;;6.70;99.90;;;;;;5020200;28;20238;-51
2021/01/22 04:45:09;;;;;;;0.20;0.20;;;6.50;99.90;;;;;;5022749;28;20211;-49
2021/01/22 04:47:36;;;;;;;0.20;0.20;;;6.30;99.90;;;;;;5019312;28;20329;-47
2021/01/22 04:50:04;;;;;;;0.43;0.20;;;5.90;99.90;;;;;;5023725;28;20184;-53
2021/01/22 04:52:31;;;;;;;0.97;0.30;;;5.70;99.90;;;;;;5001585;28;20525;-54
2021/01/22 04:54:58;;;;;;;0.30;0.30;;;5.50;99.90;;;;;;5023915;28;20196;-49
2021/01/22 04:57:24;;;;;;;1.47;0.40;;;5.20;99.90;;;;;;5021505;28;20215;-51
2021/01/22 04:59:51;;;;;;;0.40;0.40;;;5.00;99.90;;;;;;5022522;28;20271;-47
2021/01/22 05:02:18;;;;;;;0.60;0.60;;;4.80;99.90;;;;;;5015023;28;20202;-56
2021/01/22 05:04:44;;;;;;;0.30;0.30;;;4.60;99.90;;;;;;5020800;28;20274;-51
2021/01/22 05:07:10;;;;;;;0.63;0.40;;;4.50;99.90;;;;;;5009809;28;20212;-48
2021/01/22 05:09:36;;;;;;;1.03;0.30;;;4.30;99.90;;;;;;5019433;28;20176;-47
2021/01/22 05:12:03;;;;;;;0.40;0.40;;;4.20;99.90;;;;;;5022581;28;20253;-49
2021/01/22 05:14:28;;;;;;;0.53;0.40;;;4.20;99.90;;;;;;5019631;28;20261;-52
2021/01/22 05:17:04;;;;;;;0.40;0.40;;;4.10;99.90;;;;;;5023068;28;20267;-53
2021/01/22 05:19:31;;;;;;;0.33;0.33;;;4.10;99.90;;;;;;5019554;28;20187;-51
2021/01/22 05:21:57;;;;;;;0.30;0.30;;;4.00;99.90;;;;;;5009813;28;20525;-49
2021/01/22 05:24:25;;;;;;;0.20;0.20;;;4.00;99.90;;;;;;5020919;28;20568;-53
2021/01/22 05:27:04;;;;;;;0.80;0.30;;;3.90;99.90;;;;;;5022042;28;20164;-52
2021/01/22 05:29:31;;;;;;;0.20;0.20;;;3.90;99.90;;;;;;5019464;28;20222;-54
2021/01/22 05:31:57;;;;;;;0.13;0.13;;;3.90;99.90;;;;;;5023364;28;20184;-51
2021/01/22 05:34:43;;;;;;;0.30;0.20;;;3.80;99.90;;;;;;5021073;28;20745;-52
2021/01/22 05:37:08;;;;;;;0.17;0.17;;;3.80;99.90;;;;;;5023520;28;20184;-52
2021/01/22 05:39:34;;;;;;;1.83;0.50;;;3.70;99.90;;;;;;5004807;28;20192;-54
2021/01/22 05:41:59;;;;;;;1.70;0.67;;;3.70;99.90;;;;;;5023170;28;20196;-55
2021/01/22 05:44:25;;;;;;;1.90;0.70;;;3.70;99.90;;;;;;5014789;28;20212;-49
2021/01/22 05:47:07;;;;;;;0.40;0.40;;;3.70;99.90;;;;;;5021768;28;20180;-50
2021/01/22 05:49:51;;;;;;;0.63;0.60;;;3.70;99.90;;;;;;5018890;28;20265;-56
2021/01/22 05:52:24;;;;;;;1.00;0.60;;;3.70;99.90;;;;;;5017781;28;20180;-50
2021/01/22 05:54:50;;;;;;;3.40;1.33;;;3.60;99.90;;;;;;5016728;28;20292;-50
2021/01/22 05:57:16;;;;;;;1.70;0.90;;;3.60;99.90;;;;;;5021976;28;20188;-50
2021/01/22 05:59:42;;;;;;;0.93;0.93;;;3.60;99.90;;;;;;5019937;28;20757;-49
2021/01/22 06:02:31;;;;;;;5.20;1.50;;;3.60;99.90;;;;;;5023206;28;20675;-52
2021/01/22 06:05:13;;;;;;;1.23;0.93;;;3.70;99.90;;;;;;5011524;28;20605;-49
2021/01/22 06:07:43;;;;;;;2.63;1.37;;;3.70;99.90;;;;;;5019394;28;20849;-55
2021/01/22 06:10:13;;;;;;;1.87;1.20;;;3.70;99.90;;;;;;5004379;28;20802;-56
2021/01/22 06:12:43;;;;;;;1.40;1.30;;;3.70;99.90;;;;;;5019449;28;20168;-50
2021/01/22 06:15:10;;;;;;;2.40;1.63;;;3.70;99.90;;;;;;5023094;28;20563;-54
2021/01/22 06:17:37;;;;;;;1.63;1.53;;;3.70;99.90;;;;;;5022529;28;20187;-48
2021/01/22 06:20:05;;;;;;;2.10;1.50;;;3.70;99.90;;;;;;5026833;28;20207;-48
2021/01/22 06:22:35;;;;;;;7.90;2.70;;;3.70;99.90;;;;;;5022986;28;20278;-51
2021/01/22 06:25:01;;;;;;;6.60;2.73;;;3.70;99.90;;;;;;5012836;28;20262;-52
2021/01/22 06:27:30;;;;;;;9.20;2.67;;;3.70;99.90;;;;;;5023413;28;20219;-54
2021/01/22 06:29:57;;;;;;;6.50;2.73;;;3.70;99.90;;;;;;5026217;28;20195;-51
2021/01/22 06:32:23;;;;;;;12.07;3.93;;;3.70;99.90;;;;;;5024191;28;20192;-53
2021/01/22 06:34:50;;;;;;;4.03;2.50;;;3.70;99.90;;;;;;5024496;28;20196;-52
2021/01/22 06:37:17;;;;;;;2.30;2.07;;;3.70;99.90;;;;;;5025599;28;20195;-55
2021/01/22 06:39:42;;;;;;;4.50;2.60;;;3.70;99.90;;;;;;5009143;28;21185;-52
2021/01/22 06:42:08;;;;;;;7.67;2.83;;;3.80;99.90;;;;;;5025609;28;20203;-48
2021/01/22 06:44:34;;;;;;;3.23;2.10;;;3.80;99.90;;;;;;5021754;28;20204;-48
2021/01/22 06:47:10;;;;;;;16.73;5.07;;;3.80;99.90;;;;;;5025590;28;20220;-48
2021/01/22 06:49:36;;;;;;;2.20;1.90;;;3.80;99.90;;;;;;5021972;28;20178;-50
2021/01/22 06:52:12;;;;;;;9.10;3.60;;;3.80;99.90;;;;;;5026319;28;20184;-53
2021/01/22 06:54:56;;;;;;;5.73;3.50;;;3.80;99.90;;;;;;5022479;28;20921;-52
2021/01/22 06:57:22;;;;;;;8.10;3.33;;;3.80;99.90;;;;;;5009027;28;20196;-54
2021/01/22 06:59:47;;;;;;;8.83;2.80;;;3.80;99.90;;;;;;5024073;28;20186;-57
2021/01/22 07:02:33;;;;;;;9.93;2.90;;;3.80;99.90;;;;;;5025806;28;20262;-52
2021/01/22 07:04:59;;;;;;;16.57;4.63;;;3.70;99.90;;;;;;5026399;28;20250;-51
2021/01/22 07:07:44;;;;;;;7.50;2.53;;;3.70;99.90;;;;;;5022995;28;20246;-56
2021/01/22 07:10:10;;;;;;;24.30;5.60;;;3.70;99.90;;;;;;5025899;28;20230;-48
2021/01/22 07:12:35;;;;;;;19.37;5.63;;;3.70;99.90;;;;;;5003447;28;20198;-53
2021/01/22 07:15:01;;;;;;;16.23;5.20;;;3.70;99.90;;;;;;5021233;28;20286;-48
2021/01/22 07:17:30;;;;;;;13.83;3.30;;;3.70;99.90;;;;;;5025434;28;20513;-55
2021/01/22 07:20:09;;;;;;;9.70;3.37;;;3.60;99.90;;;;;;5021386;28;20180;-51
2021/01/22 07:22:35;;;;;;;37.67;8.10;;;3.60;99.90;;;;;;5012450;28;20914;-56
2021/01/22 07:25:03;;;;;;;5.50;2.30;;;3.60;99.90;;;;;;5025372;28;20258;-56
2021/01/22 07:27:40;;;;;;;9.93;3.93;;;3.70;99.90;;;;;;5000828;28;20216;-52
2021/01/22 07:30:10;;;;;;;8.57;3.23;;;3.70;99.90;;;;;;5021865;28;20652;-52
2021/01/22 07:32:37;;;;;;;6.87;3.63;;;3.80;99.90;;;;;;5021603;28;20750;-52
2021/01/22 07:35:03;;;;;;;3.40;2.13;;;3.80;99.90;;;;;;5021413;28;20204;-56
2021/01/22 07:37:38;;;;;;;9.00;2.90;;;3.80;99.90;;;;;;5021866;28;20192;-56
2021/01/22 07:40:12;;;;;;;4.00;2.23;;;3.90;99.90;;;;;;5023947;28;20218;-51
2021/01/22 07:42:38;;;;;;;6.27;3.23;;;3.90;99.90;;;;;;5003007;28;20837;-51
2021/01/22 07:45:15;;;;;;;10.20;4.77;;;3.90;99.90;;;;;;5024858;28;20203;-51
2021/01/22 07:47:42;;;;;;;4.57;3.70;;;4.00;99.90;;;;;;5019539;28;20203;-48
2021/01/22 07:50:15;;;;;;;8.23;4.17;;;4.00;99.90;;;;;;5025288;28;20176;-52
2021/01/22 07:52:46;;;;;;;10.60;5.27;;;4.10;99.90;;;;;;5018303;28;20239;-51
2021/01/22 07:55:16;;;;;;;5.53;4.67;;;4.10;99.90;;;;;;5017918;28;20255;-56
2021/01/22 07:57:42;;;;;;;5.00;4.03;;;4.10;99.90;;;;;;5006948;28;20196;-47
2021/01/22 08:00:10;;;;;;;8.77;5.10;;;4.10;99.90;;;;;;5019522;28;20687;-52
2021/01/22 08:02:35;;;;;;;8.00;5.07;;;4.10;99.90;;;;;;5018681;28;20175;-47
2021/01/22 08:05:04;;;;;;;6.10;5.50;;;4.20;99.90;;;;;;5021673;28;20282;-49
2021/01/22 08:07:31;;;;;;;7.73;5.63;;;4.20;99.90;;;;;;5016719;28;20210;-59
2021/01/22 08:09:56;;;;;;;7.20;5.03;;;4.20;99.90;;;;;;5022423;28;20181;-50
2021/01/22 08:12:22;;;;;;;10.23;6.07;;;4.20;99.90;;;;;;5006415;28;20250;-55
2021/01/22 08:14:47;;;;;;;12.27;6.93;;;4.20;99.90;;;;;;5016821;28;20200;-46
2021/01/22 08:17:14;;;;;;;8.00;6.13;;;4.20;99.90;;;;;;5018132;28;20188;-58
2021/01/22 08:19:39;;;;;;;17.20;7.77;;;4.20;99.90;;;;;;5009928;28;20836;-50
2021/01/22 08:22:05;;;;;;;9.97;6.67;;;4.20;99.90;;;;;;5017417;28;20238;-46
2021/01/22 08:24:30;;;;;;;16.03;7.47;;;4.20;99.90;;;;;;5017279;28;20200;-57
2021/01/22 08:27:01;;;;;;;9.60;4.90;;;4.30;99.90;;;;;;5011509;28;20224;-56
2021/01/22 08:29:28;;;;;;;10.20;4.70;;;4.30;99.90;;;;;;5010472;28;20176;-49
2021/01/22 08:31:54;;;;;;;8.70;5.10;;;4.30;99.90;;;;;;5013845;28;20196;-54
2021/01/22 08:34:22;;;;;;;15.30;6.23;;;4.30;99.90;;;;;;5018633;28;20231;-49
2021/01/22 08:36:48;;;;;;;12.20;6.63;;;4.30;99.90;;;;;;5021753;28;20905;-54
2021/01/22 08:39:14;;;;;;;9.13;5.10;;;4.40;99.90;;;;;;5018685;28;20683;-54
2021/01/22 08:41:39;;;;;;;17.70;7.40;;;4.40;99.90;;;;;;5020663;28;20177;-49
2021/01/22 08:44:05;;;;;;;12.10;6.07;;;4.40;99.90;;;;;;5006795;28;20204;-49
2021/01/22 08:46:31;;;;;;;13.73;5.37;;;4.40;99.90;;;;;;5007300;28;20799;-53
2021/01/22 08:48:56;;;;;;;13.90;7.90;;;4.40;99.90;;;;;;5016294;28;20272;-49
2021/01/22 08:51:29;;;;;;;10.07;5.23;;;4.50;99.90;;;;;;5018567;28;20181;-55
2021/01/22 08:53:56;;;;;;;8.87;5.13;;;4.50;99.90;;;;;;5014702;28;20279;-54
2021/01/22 08:56:23;;;;;;;8.87;5.77;;;4.50;99.90;;;;;;5021641;28;20777;-53
2021/01/22 08:59:20;;;;;;;5.17;4.67;;;4.50;99.90;;;;;;5002891;28;20222;-52
2021/01/22 09:01:54;;;;;;;6.00;4.70;;;4.50;99.90;;;;;;5000689;28;20660;-47
2021/01/22 09:04:24;;;;;;;17.27;7.80;;;4.60;99.90;;;;;;5004269;28;20208;-52
2021/01/22 09:07:00;;;;;;;17.00;7.50;;;4.50;99.90;;;;;;5022921;28;20181;-53
2021/01/22 09:09:49;;;;;;;8.80;4.00;;;4.60;99.90;;;;;;5016327;28;20884;-49
2021/01/22 09:12:32;;;;;;;11.70;6.33;;;4.50;99.90;;;;;;5019803;28;20638;-51
2021/01/22 09:15:00;;;;;;;20.07;6.67;;;4.60;99.90;;;;;;5005198;28;20200;-50
2021/01/22 09:17:41;;;;;;;9.97;5.83;;;4.50;99.90;;;;;;5018630;28;20285;-55
2021/01/22 09:20:27;;;;;;;15.17;7.40;;;4.60;99.90;;;;;;5010122;28;20188;-49
2021/01/22 09:23:04;;;;;;;17.87;8.27;;;4.50;99.90;;;;;;5023199;28;20187;-51
2021/01/22 09:25:30;;;;;;;11.80;6.63;;;4.50;99.90;;;;;;5017329;28;20199;-51
2021/01/22 09:27:56;;;;;;;16.17;7.17;;;4.60;99.90;;;;;;5023583;28;20216;-54
2021/01/22 09:30:23;;;;;;;13.27;5.83;;;4.60;99.90;;;;;;4998820;28;20192;-48
2021/01/22 09:32:51;;;;;;;24.17;8.90;;;4.60;99.90;;;;;;5003497;28;20843;-52
2021/01/22 09:35:18;;;;;;;11.27;5.07;;;4.60;99.90;;;;;;5013062;28;20293;-48
2021/01/22 09:37:43;;;;;;;22.40;8.03;;;4.60;99.90;;;;;;5017433;28;20269;-56
2021/01/22 09:40:10;;;;;;;15.53;7.63;;;4.60;99.90;;;;;;5016546;28;20273;-48
2021/01/22 09:42:37;;;;;;;15.63;7.13;;;4.60;99.90;;;;;;5021908;28;20187;-55
2021/01/22 09:45:05;;;;;;;11.50;6.20;;;4.70;99.90;;;;;;5016019;28;20192;-49
2021/01/22 09:47:30;;;;;;;26.53;9.50;;;4.70;99.90;;;;;;5007986;28;20207;-53
2021/01/22 09:49:56;;;;;;;14.40;6.37;;;4.70;99.90;;;;;;5013454;28;20172;-51
2021/01/22 09:52:21;;;;;;;22.33;9.27;;;4.70;99.90;;;;;;5019453;28;20200;-48
2021/01/22 09:54:47;;;;;;;16.57;8.47;;;4.80;99.90;;;;;;5010995;28;20207;-54
2021/01/22 09:57:13;;;;;;;13.53;7.77;;;4.90;99.90;;;;;;5019012;28;20207;-50
2021/01/22 09:59:38;;;;;;;10.73;6.80;;;4.90;99.90;;;;;;5015486;28;20649;-56
2021/01/22 10:02:04;;;;;;;26.87;9.27;;;5.00;99.90;;;;;;5000847;28;20196;-54
2021/01/22 10:04:30;;;;;;;11.77;6.67;;;5.00;99.90;;;;;;5017379;28;20199;-57
2021/01/22 10:06:55;;;;;;;5.87;5.27;;;5.00;99.90;;;;;;5004551;28;20183;-56
2021/01/22 10:09:21;;;;;;;19.63;6.63;;;5.00;99.90;;;;;;5017003;28;20971;-51
2021/01/22 10:11:48;;;;;;;17.50;7.93;;;5.00;99.90;;;;;;5014412;28;20184;-59
2021/01/22 10:14:13;;;;;;;12.00;6.17;;;5.10;99.90;;;;;;4998136;28;20201;-52
2021/01/22 10:16:39;;;;;;;11.63;5.57;;;5.10;99.90;;;;;;5003818;28;20545;-58
2021/01/22 10:19:05;;;;;;;8.67;5.67;;;5.10;99.90;;;;;;5009947;28;20191;-54
2021/01/22 10:21:31;;;;;;;6.63;4.43;;;5.20;99.90;;;;;;5016655;28;20664;-59
2021/01/22 10:23:57;;;;;;;8.63;5.00;;;5.20;99.90;;;;;;5012535;28;20196;-54
2021/01/22 10:26:23;;;;;;;7.53;4.20;;;5.30;99.90;;;;;;5016836;28;20256;-52
2021/01/22 10:28:51;;;;;;;14.80;6.70;;;5.30;99.90;;;;;;5012403;28;20204;-53
2021/01/22 10:31:17;;;;;;;10.10;5.97;;;5.40;99.90;;;;;;5015078;28;20184;-56
2021/01/22 10:33:43;;;;;;;7.90;5.90;;;5.40;99.90;;;;;;5003048;28;20203;-58
2021/01/22 10:36:09;;;;;;;8.83;5.20;;;5.50;99.90;;;;;;5012945;28;20956;-53
2021/01/22 10:38:35;;;;;;;13.13;7.07;;;5.50;99.90;;;;;;5010113;28;20195;-58
2021/01/22 10:41:02;;;;;;;7.70;5.87;;;5.60;99.90;;;;;;5011856;28;21895;-55
2021/01/22 10:43:28;;;;;;;9.87;4.70;;;5.60;99.90;;;;;;5016227;28;20653;-54
2021/01/22 10:45:54;;;;;;;10.10;5.93;;;5.60;99.90;;;;;;5012695;28;20176;-49
2021/01/22 10:48:19;;;;;;;12.40;5.90;;;5.70;99.90;;;;;;5003022;28;20220;-55
2021/01/22 10:50:46;;;;;;;9.50;4.90;;;5.70;99.90;;;;;;5010508;28;20195;-53
2021/01/22 10:53:12;;;;;;;6.23;4.57;;;5.70;99.90;;;;;;5010444;28;20610;-48
2021/01/22 10:55:38;;;;;;;7.07;5.10;;;5.70;99.90;;;;;;4998048;28;20216;-53
2021/01/22 10:58:04;;;;;;;12.57;5.47;;;5.70;99.90;;;;;;5016719;28;20211;-50
2021/01/22 11:00:30;;;;;;;8.50;5.03;;;5.70;99.90;;;;;;5019892;28;20172;-49
2021/01/22 11:02:55;;;;;;;11.53;5.10;;;5.70;99.90;;;;;;5023731;28;20302;-53
2021/01/22 11:05:21;;;;;;;6.43;4.73;;;5.70;99.90;;;;;;5012324;28;20215;-52
2021/01/22 11:07:46;;;;;;;10.73;4.00;;;5.70;99.90;;;;;;5016865;28;20256;-50
2021/01/22 11:10:12;;;;;;;5.47;3.90;;;5.70;99.90;;;;;;5020522;28;20263;-49
2021/01/22 11:12:38;;;;;;;7.80;4.93;;;5.70;99.90;;;;;;5019699;28;20228;-49
2021/01/22 11:15:05;;;;;;;4.33;3.13;;;5.70;99.90;;;;;;5022001;28;20208;-50
2021/01/22 11:17:30;;;;;;;4.83;3.00;;;5.70;99.90;;;;;;5025388;28;20242;-50
2021/01/22 11:19:56;;;;;;;7.03;3.57;;;5.80;99.90;;;;;;5008053;28;20196;-46
2021/01/22 11:22:22;;;;;;;12.20;3.93;;;5.80;99.90;;;;;;5023245;28;20208;-48
2021/01/22 11:24:48;;;;;;;9.17;3.27;;;5.80;99.90;;;;;;5012781;28;20211;-55
2021/01/22 11:27:13;;;;;;;10.93;4.20;;;5.80;99.90;;;;;;5021019;28;20213;-48
2021/01/22 11:29:39;;;;;;;11.87;3.77;;;5.80;99.90;;;;;;5018291;28;20188;-56
2021/01/22 11:32:05;;;;;;;6.33;3.80;;;5.90;99.90;;;;;;5023358;28;20168;-48
2021/01/22 11:34:35;;;;;;;6.50;3.03;;;5.90;99.90;;;;;;5008714;28;20231;-59
2021/01/22 11:37:00;;;;;;;10.17;4.50;;;5.80;99.90;;;;;;5022855;28;20180;-47
2021/01/22 11:39:26;;;;;;;5.87;3.37;;;5.90;99.90;;;;;;5017138;28;20237;-45
2021/01/22 11:41:52;;;;;;;7.80;3.67;;;5.90;99.90;;;;;;5021629;28;20164;-50
2021/01/22 11:44:17;;;;;;;8.27;4.00;;;5.90;99.90;;;;;;5020743;28;20232;-50
2021/01/22 11:46:43;;;;;;;10.50;4.57;;;5.80;99.90;;;;;;5016136;28;20234;-47
2021/01/22 11:49:09;;;;;;;8.40;3.90;;;5.90;99.90;;;;;;5024583;28;20636;-51
2021/01/22 11:51:34;;;;;;;12.70;3.47;;;5.90;99.90;;;;;;5009593;28;20242;-49
2021/01/22 11:54:01;;;;;;;10.10;4.73;;;5.90;99.90;;;;;;5016330;28;20235;-46
2021/01/22 11:56:26;;;;;;;9.43;4.37;;;5.90;99.90;;;;;;5025631;28;20180;-48
2021/01/22 11:58:52;;;;;;;5.40;3.00;;;5.90;99.90;;;;;;5018820;28;20255;-46
2021/01/22 12:01:18;;;;;;;16.87;4.13;;;5.90;99.90;;;;;;5014001;28;20594;-53
2021/01/22 12:03:43;;;;;;;9.33;3.53;;;6.00;99.90;;;;;;5022087;28;20207;-58
2021/01/22 12:06:09;;;;;;;13.90;4.13;;;6.00;99.90;;;;;;5010005;28;20212;-51
2021/01/22 12:08:34;;;;;;;10.33;4.83;;;6.00;99.90;;;;;;5023499;28;20218;-50
2021/01/22 12:11:00;;;;;;;5.20;2.97;;;6.10;99.90;;;;;;5017666;28;20186;-48
2021/01/22 12:13:25;;;;;;;10.87;4.87;;;6.10;99.90;;;;;;5024289;28;20180;-50
2021/01/22 12:15:51;;;;;;;6.50;4.07;;;6.20;99.90;;;;;;5016413;28;20176;-51
2021/01/22 12:18:17;;;;;;;13.37;4.73;;;6.30;99.90;;;;;;5025147;28;20657;-46
2021/01/22 12:20:44;;;;;;;6.60;3.40;;;6.30;99.90;;;;;;5008835;28;20266;-50
2021/01/22 12:23:10;;;;;;;9.70;3.60;;;6.30;99.90;;;;;;5020138;28;20199;-54
2021/01/22 12:25:35;;;;;;;11.23;3.83;;;6.20;99.90;;;;;;5018910;28;20203;-50
2021/01/22 12:28:01;;;;;;;7.77;3.43;;;6.20;99.90;;;;;;5017370;28;20202;-53
2021/01/22 12:30:26;;;;;;;7.67;5.00;;;6.20;99.90;;;;;;5023842;28;20187;-48
2021/01/22 12:32:52;;;;;;;12.37;5.10;;;6.20;99.90;;;;;;5017587;28;20180;-46
2021/01/22 12:35:17;;;;;;;7.47;4.07;;;6.30;99.90;;;;;;5021573;28;20259;-46
2021/01/22 12:37:44;;;;;;;8.33;4.13;;;6.30;99.90;;;;;;5007170;28;20184;-54
2021/01/22 12:40:10;;;;;;;8.83;4.37;;;6.30;99.90;;;;;;5020996;28;20172;-52
2021/01/22 12:42:35;;;;;;;9.77;4.43;;;6.30;99.90;;;;;;5018816;28;20211;-48
2021/01/22 12:45:01;;;;;;;7.50;4.73;;;6.30;99.90;;;;;;5019103;28;20222;-57
2021/01/22 12:47:27;;;;;;;7.40;3.73;;;6.30;99.90;;;;;;5020005;28;20212;-56
2021/01/22 12:49:52;;;;;;;7.23;3.70;;;6.30;99.90;;;;;;5011812;28;20165;-58
2021/01/22 12:52:17;;;;;;;8.77;4.70;;;6.20;99.90;;;;;;5010761;28;20246;-49
2021/01/22 12:54:43;;;;;;;5.50;4.53;;;6.20;99.90;;;;;;5019306;28;20291;-59
2021/01/22 12:57:08;;;;;;;5.27;4.60;;;6.30;99.90;;;;;;5019407;28;20192;-50